Excellent Pescadores — HORK — position and weather

sailwx.info

Track history (hours):
 
Tides and Currents Weather Stations Pressure Air Temp Water Temp Dewpoint Dewpoint Depression Visibility Wind Speed Wind Dir Waves Ship Positions

Excellent Pescadores

Last reported at 2015-Jan-08 19:04 UTC. Time now 2015-Jan-27 10:24 UTC.
Position N 24°16' E 118°36'.
Warning: this ship's position is 18 days out of date.

Length 148 m; draft 5.2 m.

Type: Cargo ship. MMSI: 356291000.

Date/timePositionNaut miles runAvg speedWind from/ knotsBaromVisibWave heightAir tempDewpointWater temp
2015-Jan-08 19:04N 24°16' E 118°36'7 7.7
2015-Jan-08 18:09N 24°14' E 118°29'5 8.6
2015-Jan-08 17:33N 24°15' E 118°23'4 3.3
2015-Jan-08 16:27N 24°12' E 118°21'0 0.1
2015-Jan-08 15:26N 24°12' E 118°21'1 1.7
2015-Jan-08 14:33N 24°12' E 118°19'7 7.1
2015-Jan-08 13:32N 24°17' E 118°13'8 7.7
2015-Jan-08 12:28N 24°23' E 118°07'7 7.6
2015-Jan-08 11:31N 24°29' E 118°04'4 1.2
2015-Jan-08 08:31N 24°33' E 118°05'0 0.0
2015-Jan-08 07:18N 24°33' E 118°05'0 0.0
2015-Jan-08 05:18N 24°33' E 118°05'0 0.0
2015-Jan-08 03:48N 24°33' E 118°05'0 0.0
2015-Jan-07 20:33N 24°33' E 118°05'0 0.0
2015-Jan-07 19:18N 24°33' E 118°05'0 0.0
2015-Jan-07 18:27N 24°33' E 118°05'0 0.0
2015-Jan-07 17:30N 24°33' E 118°05'0 0.0
2015-Jan-07 16:18N 24°33' E 118°05'0 0.0
2015-Jan-07 15:33N 24°33' E 118°05'0 0.0
2015-Jan-07 14:30N 24°33' E 118°05'0 0.0
2015-Jan-07 13:12N 24°33' E 118°05'0 0.0
2015-Jan-07 11:18N 24°33' E 118°05'0 0.0
2015-Jan-07 10:18N 24°33' E 118°05'0 0.0
2015-Jan-07 09:09N 24°33' E 118°05'0 0.0
2015-Jan-07 08:27N 24°33' E 118°05'0 0.0
2015-Jan-07 07:24N 24°33' E 118°05'0 0.0
2015-Jan-07 03:06N 24°33' E 118°05'0 0.0
2015-Jan-07 02:30N 24°33' E 118°05'0 0.0
2015-Jan-07 01:30N 24°33' E 118°05'0 0.0
2015-Jan-07 00:24N 24°33' E 118°05'0 0.0
2015-Jan-06 23:24N 24°33' E 118°05'0 0.0
2015-Jan-06 22:24N 24°33' E 118°05'0 0.0
2015-Jan-06 20:18N 24°33' E 118°05'0 0.0
2015-Jan-06 19:11N 24°33' E 118°05'0 0.0
2015-Jan-06 18:11N 24°33' E 118°05'0 0.0
2015-Jan-06 13:29N 24°33' E 118°05'0 0.0
2015-Jan-06 12:17N 24°33' E 118°05'0 0.0
2015-Jan-06 07:23N 24°33' E 118°05'0 0.0
2015-Jan-06 06:23N 24°33' E 118°05'0 0.0
2015-Jan-06 05:29N 24°33' E 118°05'0 0.0
2015-Jan-06 03:11N 24°33' E 118°05'0 0.0
2015-Jan-06 00:29N 24°33' E 118°05'0 0.0
2015-Jan-05 22:20N 24°33' E 118°05'0 0.0
2015-Jan-05 21:26N 24°33' E 118°05'0 0.0
2015-Jan-05 20:11N 24°33' E 118°05'0 0.0
2015-Jan-05 19:29N 24°33' E 118°05'0 0.0
2015-Jan-05 18:29N 24°33' E 118°05'0 0.0
2015-Jan-05 17:05N 24°33' E 118°05'0 0.0
2015-Jan-05 16:29N 24°33' E 118°05'0 0.0
2015-Jan-05 15:23N 24°33' E 118°05'0 0.0
2015-Jan-05 14:29N 24°33' E 118°05'0 0.0
2015-Jan-05 13:17N 24°33' E 118°05'0 0.0
2015-Jan-05 12:05N 24°33' E 118°05'0 0.0
2015-Jan-05 11:29N 24°33' E 118°05'0 0.1
2015-Jan-05 10:32N 24°33' E 118°05'7 7.3
2015-Jan-05 09:32N 24°25' E 118°04'7 7.4
2015-Jan-05 08:33N 24°21' E 118°10'3 3.0
2015-Jan-05 07:25N 24°19' E 118°13'0 0.0
2015-Jan-05 06:19N 24°19' E 118°13'0 0.1
2015-Jan-05 04:19N 24°19' E 118°13'0 0.0
2015-Jan-05 00:13N 24°19' E 118°13'0 0.1
2015-Jan-04 22:31N 24°19' E 118°13'1 1.4
2015-Jan-04 21:33N 24°19' E 118°12'4 3.7
2015-Jan-04 20:33N 24°15' E 118°11'6 6.2
2015-Jan-04 19:33N 24°12' E 118°17'6 5.4
2015-Jan-04 18:32N 24°10' E 118°22'7 6.4
2015-Jan-04 17:31N 24°07' E 118°29'9 9.4
2015-Jan-04 16:33N 24°05' E 118°38'1411.4
2015-Jan-04 15:18N 24°04' E 118°54'911.3
2015-Jan-04 14:32N 24°07' E 119°03'1111.0
2015-Jan-04 13:32N 24°05' E 119°15'1211.1
2015-Jan-04 12:26N 23°59' E 119°26'1112.0
2015-Jan-04 11:33N 23°57' E 119°38'1211.6
2015-Jan-04 10:31N 23°50' E 119°48'1312.5
2015-Jan-04 09:30N 23°39' E 119°54'5811.5
2015-Jan-04 04:25N 22°41' E 119°49'1012.1
2015-Jan-04 03:33N 22°30' E 119°48'1212.4
2015-Jan-04 02:33N 22°18' E 119°49'  
Track history (hours):
 
Tides and Currents Weather Stations Pressure Air Temp Water Temp Dewpoint Dewpoint Depression Visibility Wind Speed Wind Dir Waves Ship Positions

Excellent Pescadores

Last reported at 2015-Jan-08 19:04 UTC. Time now 2015-Jan-27 10:24 UTC.
Position N 24°16' E 118°36'.
Warning: this ship's position is 18 days out of date.

Length 148 m; draft 5.2 m.

Type: Cargo ship. MMSI: 356291000.

Date/timePositionNaut miles runAvg speedWind from/ knotsBaromVisibWave heightAir tempDewpointWater temp
2015-Jan-08 19:04N 24°16' E 118°36'7 7.7
2015-Jan-08 18:09N 24°14' E 118°29'5 8.6
2015-Jan-08 17:33N 24°15' E 118°23'4 3.3
2015-Jan-08 16:27N 24°12' E 118°21'0 0.1
2015-Jan-08 15:26N 24°12' E 118°21'1 1.7
2015-Jan-08 14:33N 24°12' E 118°19'7 7.1
2015-Jan-08 13:32N 24°17' E 118°13'8 7.7
2015-Jan-08 12:28N 24°23' E 118°07'7 7.6
2015-Jan-08 11:31N 24°29' E 118°04'4 1.2
2015-Jan-08 08:31N 24°33' E 118°05'0 0.0
2015-Jan-08 07:18N 24°33' E 118°05'0 0.0
2015-Jan-08 05:18N 24°33' E 118°05'0 0.0
2015-Jan-08 03:48N 24°33' E 118°05'0 0.0
2015-Jan-07 20:33N 24°33' E 118°05'0 0.0
2015-Jan-07 19:18N 24°33' E 118°05'0 0.0
2015-Jan-07 18:27N 24°33' E 118°05'0 0.0
2015-Jan-07 17:30N 24°33' E 118°05'0 0.0
2015-Jan-07 16:18N 24°33' E 118°05'0 0.0
2015-Jan-07 15:33N 24°33' E 118°05'0 0.0
2015-Jan-07 14:30N 24°33' E 118°05'0 0.0
2015-Jan-07 13:12N 24°33' E 118°05'0 0.0
2015-Jan-07 11:18N 24°33' E 118°05'0 0.0
2015-Jan-07 10:18N 24°33' E 118°05'0 0.0
2015-Jan-07 09:09N 24°33' E 118°05'0 0.0
2015-Jan-07 08:27N 24°33' E 118°05'0 0.0
2015-Jan-07 07:24N 24°33' E 118°05'0 0.0
2015-Jan-07 03:06N 24°33' E 118°05'0 0.0
2015-Jan-07 02:30N 24°33' E 118°05'0 0.0
2015-Jan-07 01:30N 24°33' E 118°05'0 0.0
2015-Jan-07 00:24N 24°33' E 118°05'0 0.0
2015-Jan-06 23:24N 24°33' E 118°05'0 0.0
2015-Jan-06 22:24N 24°33' E 118°05'0 0.0
2015-Jan-06 20:18N 24°33' E 118°05'0 0.0
2015-Jan-06 19:11N 24°33' E 118°05'0 0.0
2015-Jan-06 18:11N 24°33' E 118°05'0 0.0
2015-Jan-06 13:29N 24°33' E 118°05'0 0.0
2015-Jan-06 12:17N 24°33' E 118°05'0 0.0
2015-Jan-06 07:23N 24°33' E 118°05'0 0.0
2015-Jan-06 06:23N 24°33' E 118°05'0 0.0
2015-Jan-06 05:29N 24°33' E 118°05'0 0.0
2015-Jan-06 03:11N 24°33' E 118°05'0 0.0
2015-Jan-06 00:29N 24°33' E 118°05'0 0.0
2015-Jan-05 22:20N 24°33' E 118°05'0 0.0
2015-Jan-05 21:26N 24°33' E 118°05'0 0.0
2015-Jan-05 20:11N 24°33' E 118°05'0 0.0
2015-Jan-05 19:29N 24°33' E 118°05'0 0.0
2015-Jan-05 18:29N 24°33' E 118°05'0 0.0
2015-Jan-05 17:05N 24°33' E 118°05'0 0.0
2015-Jan-05 16:29N 24°33' E 118°05'0 0.0
2015-Jan-05 15:23N 24°33' E 118°05'0 0.0
2015-Jan-05 14:29N 24°33' E 118°05'0 0.0
2015-Jan-05 13:17N 24°33' E 118°05'0 0.0
2015-Jan-05 12:05N 24°33' E 118°05'0 0.0
2015-Jan-05 11:29N 24°33' E 118°05'0 0.1
2015-Jan-05 10:32N 24°33' E 118°05'7 7.3
2015-Jan-05 09:32N 24°25' E 118°04'7 7.4
2015-Jan-05 08:33N 24°21' E 118°10'3 3.0
2015-Jan-05 07:25N 24°19' E 118°13'0 0.0
2015-Jan-05 06:19N 24°19' E 118°13'0 0.1
2015-Jan-05 04:19N 24°19' E 118°13'0 0.0
2015-Jan-05 00:13N 24°19' E 118°13'0 0.1
2015-Jan-04 22:31N 24°19' E 118°13'1 1.4
2015-Jan-04 21:33N 24°19' E 118°12'4 3.7
2015-Jan-04 20:33N 24°15' E 118°11'6 6.2
2015-Jan-04 19:33N 24°12' E 118°17'6 5.4
2015-Jan-04 18:32N 24°10' E 118°22'7 6.4
2015-Jan-04 17:31N 24°07' E 118°29'9 9.4
2015-Jan-04 16:33N 24°05' E 118°38'1411.4
2015-Jan-04 15:18N 24°04' E 118°54'911.3
2015-Jan-04 14:32N 24°07' E 119°03'1111.0
2015-Jan-04 13:32N 24°05' E 119°15'1211.1
2015-Jan-04 12:26N 23°59' E 119°26'1112.0
2015-Jan-04 11:33N 23°57' E 119°38'1211.6
2015-Jan-04 10:31N 23°50' E 119°48'1312.5
2015-Jan-04 09:30N 23°39' E 119°54'5811.5
2015-Jan-04 04:25N 22°41' E 119°49'1012.1
2015-Jan-04 03:33N 22°30' E 119°48'1212.4
2015-Jan-04 02:33N 22°18' E 119°49'  

Dump ship's entire track history